Time;durP1;ratioP1;P1;durP2;ratioP2;P2;SDS_P1;SDS_P2;PMS_P1;PMS_P2;Temp;Humidity;BMP_temperature;BMP_pressure;BME280_temperature;BME280_humidity;BME280_pressure;Samples;Min_cycle;Max_cycle;Signal;HPM_P1;HPM_P2
2022/09/12 00:02:14;;;;;;;3.08;2.78;;;;;;;;;;5075071;28;20576;-80
2022/09/12 00:04:42;;;;;;;2.60;2.40;;;;;;;;;;5074971;28;20203;-81
2022/09/12 00:07:09;;;;;;;3.35;3.05;;;;;;;;;;5074864;28;20205;-80
2022/09/12 00:09:37;;;;;;;2.95;2.75;;;;;;;;;;5075166;28;20217;-80
2022/09/12 00:12:05;;;;;;;2.95;2.75;;;;;;;;;;5075041;28;20212;-81
2022/09/12 00:14:32;;;;;;;2.20;2.00;;;;;;;;;;5074782;28;20200;-81
2022/09/12 00:17:02;;;;;;;2.78;2.30;;;;;;;;;;5074781;28;20201;-80
2022/09/12 00:19:31;;;;;;;2.63;2.42;;;;;;;;;;5074912;28;20311;-80
2022/09/12 00:21:59;;;;;;;3.80;3.25;;;;;;;;;;5074785;28;20201;-80
2022/09/12 00:24:26;;;;;;;2.97;2.72;;;;;;;;;;5074597;28;20636;-80
2022/09/12 00:26:53;;;;;;;3.03;2.83;;;;;;;;;;5074082;28;20201;-80
2022/09/12 00:29:22;;;;;;;3.03;2.75;;;;;;;;;;5074270;28;20235;-81
2022/09/12 00:31:50;;;;;;;2.20;2.00;;;;;;;;;;5074652;28;20578;-80
2022/09/12 00:34:19;;;;;;;2.63;2.42;;;;;;;;;;5074069;28;20208;-80
2022/09/12 00:36:46;;;;;;;2.40;2.20;;;;;;;;;;5074082;28;20215;-80
2022/09/12 00:39:16;;;;;;;1.73;1.60;;;;;;;;;;5074361;28;20217;-81
2022/09/12 00:41:44;;;;;;;2.13;2.03;;;;;;;;;;5074202;28;20580;-81
2022/09/12 00:44:49;;;;;;;2.30;2.10;;;;;;;;;;5074418;28;20296;-81
2022/09/12 00:47:28;;;;;;;2.45;2.25;;;;;;;;;;5074165;28;20203;-81
2022/09/12 00:50:03;;;;;;;2.60;2.40;;;;;;;;;;5074082;28;20236;-80
2022/09/12 00:52:36;;;;;;;2.72;2.53;;;;;;;;;;5074437;28;20222;-81
2022/09/12 00:55:08;;;;;;;2.10;2.00;;;;;;;;;;5073987;28;20204;-81
2022/09/12 00:57:40;;;;;;;2.50;2.30;;;;;;;;;;5074136;28;20204;-81
2022/09/12 01:00:14;;;;;;;2.42;2.00;;;;;;;;;;5073930;28;20236;-81
2022/09/12 01:02:42;;;;;;;2.28;2.13;;;;;;;;;;5073305;28;20203;-80
2022/09/12 01:05:11;;;;;;;1.90;1.73;;;;;;;;;;5073279;28;20201;-81
2022/09/12 01:07:39;;;;;;;1.85;1.75;;;;;;;;;;5073644;28;20199;-81
2022/09/12 01:10:08;;;;;;;2.42;2.22;;;;;;;;;;5073735;28;20595;-81
2022/09/12 01:12:39;;;;;;;3.45;3.20;;;;;;;;;;5073692;28;20284;-81
2022/09/12 01:15:08;;;;;;;3.40;3.20;;;;;;;;;;5073686;28;20259;-80
2022/09/12 01:17:56;;;;;;;2.78;2.58;;;;;;;;;;5073190;28;20227;-81
2022/09/12 01:20:59;;;;;;;2.70;2.30;;;;;;;;;;5073522;28;20225;-81
2022/09/12 01:24:26;;;;;;;3.05;2.75;;;;;;;;;;5073477;28;20204;-81
2022/09/12 01:27:35;;;;;;;3.35;3.05;;;;;;;;;;4998888;28;20217;-80
2022/09/12 01:30:39;;;;;;;3.10;2.10;;;;;;;;;;5073214;28;20237;-81
2022/09/12 01:33:56;;;;;;;2.47;2.28;;;;;;;;;;5073562;28;20200;-81
2022/09/12 01:36:34;;;;;;;1.88;1.77;;;;;;;;;;5065311;28;20216;-81
2022/09/12 01:39:05;;;;;;;2.15;1.95;;;;;;;;;;5073333;28;20217;-81
2022/09/12 01:41:43;;;;;;;3.00;2.72;;;;;;;;;;5073227;28;20305;-80
2022/09/12 01:44:19;;;;;;;3.05;2.75;;;;;;;;;;5073233;28;20211;-81
2022/09/12 01:46:55;;;;;;;2.95;2.75;;;;;;;;;;5072554;28;20201;-81
2022/09/12 01:49:25;;;;;;;3.22;2.90;;;;;;;;;;5072871;28;20224;-80
2022/09/12 01:51:58;;;;;;;4.60;3.40;;;;;;;;;;5072910;28;20208;-80
2022/09/12 01:54:31;;;;;;;2.45;2.25;;;;;;;;;;5072751;28;20673;-81
2022/09/12 01:57:03;;;;;;;2.15;2.05;;;;;;;;;;5072475;28;20205;-81
2022/09/12 01:59:35;;;;;;;2.55;2.35;;;;;;;;;;5073029;28;20220;-81
2022/09/12 02:02:08;;;;;;;3.33;2.40;;;;;;;;;;5072923;28;20201;-81
2022/09/12 02:04:40;;;;;;;2.03;1.92;;;;;;;;;;5072469;28;20202;-81
2022/09/12 02:07:12;;;;;;;1.95;1.85;;;;;;;;;;5072309;28;20201;-81
2022/09/12 02:09:45;;;;;;;1.70;1.60;;;;;;;;;;5072033;28;20708;-81
2022/09/12 02:12:17;;;;;;;2.25;2.05;;;;;;;;;;5072839;28;20197;-81
2022/09/12 02:14:48;;;;;;;2.42;2.22;;;;;;;;;;5072630;28;20303;-80
2022/09/12 02:17:20;;;;;;;2.78;2.58;;;;;;;;;;5072511;28;20291;-80
2022/09/12 02:19:53;;;;;;;1.92;1.83;;;;;;;;;;5072164;28;20311;-81
2022/09/12 02:22:23;;;;;;;2.20;2.00;;;;;;;;;;5072379;28;20201;-81
2022/09/12 02:24:55;;;;;;;1.65;1.55;;;;;;;;;;5072123;28;20204;-81
2022/09/12 02:27:26;;;;;;;2.17;1.98;;;;;;;;;;5072135;28;20282;-81
2022/09/12 02:29:54;;;;;;;2.58;2.38;;;;;;;;;;5072128;28;20229;-81
2022/09/12 02:32:31;;;;;;;2.78;2.58;;;;;;;;;;5072194;28;20291;-81
2022/09/12 02:35:05;;;;;;;2.17;2.00;;;;;;;;;;5071866;28;20215;-81
2022/09/12 02:37:46;;;;;;;2.75;2.53;;;;;;;;;;5071955;28;20199;-81
2022/09/12 02:40:13;;;;;;;2.50;2.30;;;;;;;;;;5072263;28;20217;-81
2022/09/12 02:42:41;;;;;;;2.67;2.47;;;;;;;;;;5071946;28;20687;-81
2022/09/12 02:45:11;;;;;;;3.25;1.95;;;;;;;;;;5071453;28;20204;-81
2022/09/12 02:47:44;;;;;;;2.30;2.10;;;;;;;;;;5075408;28;20264;-81
2022/09/12 02:50:12;;;;;;;2.75;2.55;;;;;;;;;;5077235;28;20588;-81
2022/09/12 02:52:39;;;;;;;2.42;2.22;;;;;;;;;;5077001;28;20291;-81
2022/09/12 02:55:10;;;;;;;2.05;1.95;;;;;;;;;;5076651;28;20205;-81
2022/09/12 02:57:38;;;;;;;2.10;1.90;;;;;;;;;;5073952;28;20690;-82
2022/09/12 03:00:08;;;;;;;2.35;2.15;;;;;;;;;;5074295;28;20303;-82
2022/09/12 03:02:53;;;;;;;2.00;1.90;;;;;;;;;;5074047;28;20283;-82
2022/09/12 03:05:26;;;;;;;1.90;1.80;;;;;;;;;;5073894;28;20211;-81
2022/09/12 03:08:20;;;;;;;2.17;2.08;;;;;;;;;;5073820;28;20287;-81
2022/09/12 03:11:12;;;;;;;2.22;2.03;;;;;;;;;;5073726;28;20718;-82
2022/09/12 03:13:49;;;;;;;1.77;1.67;;;;;;;;;;5073591;28;20201;-81
2022/09/12 03:16:24;;;;;;;2.35;2.10;;;;;;;;;;5073302;28;20215;-82
2022/09/12 03:19:01;;;;;;;1.70;1.60;;;;;;;;;;5073620;28;20221;-81
2022/09/12 03:21:33;;;;;;;2.05;1.80;;;;;;;;;;5073523;28;20227;-81
2022/09/12 03:24:12;;;;;;;1.30;1.30;;;;;;;;;;5073461;28;20266;-81
2022/09/12 03:26:44;;;;;;;2.00;1.90;;;;;;;;;;5073197;28;20201;-82
2022/09/12 03:29:13;;;;;;;1.90;1.80;;;;;;;;;;5076033;28;20256;-81
2022/09/12 03:31:50;;;;;;;1.92;1.83;;;;;;;;;;5076952;28;20197;-81
2022/09/12 03:34:20;;;;;;;2.25;2.05;;;;;;;;;;5077444;28;20197;-82
2022/09/12 03:36:47;;;;;;;2.45;2.25;;;;;;;;;;5076816;28;20772;-81
2022/09/12 03:39:15;;;;;;;1.90;1.80;;;;;;;;;;5076165;28;20603;-81
2022/09/12 03:41:42;;;;;;;1.90;1.80;;;;;;;;;;5076466;28;20201;-81
2022/09/12 03:44:10;;;;;;;1.67;1.58;;;;;;;;;;5076808;28;20201;-81
2022/09/12 03:46:38;;;;;;;1.83;1.73;;;;;;;;;;5076018;28;20199;-83
2022/09/12 03:49:05;;;;;;;2.05;1.95;;;;;;;;;;5075274;28;20223;-82
2022/09/12 03:51:34;;;;;;;1.25;1.25;;;;;;;;;;5076199;28;20594;-81
2022/09/12 03:54:01;;;;;;;1.73;1.63;;;;;;;;;;5075940;28;20201;-81
2022/09/12 03:56:29;;;;;;;1.75;1.65;;;;;;;;;;5075779;28;20296;-81
2022/09/12 03:58:56;;;;;;;1.45;1.35;;;;;;;;;;5076419;28;20224;-81
2022/09/12 04:01:24;;;;;;;1.40;1.30;;;;;;;;;;5075876;28;20193;-82
2022/09/12 04:03:53;;;;;;;1.88;1.77;;;;;;;;;;5075616;28;20212;-81
2022/09/12 04:06:22;;;;;;;1.92;1.83;;;;;;;;;;5075255;28;20588;-82
2022/09/12 04:08:53;;;;;;;2.17;2.08;;;;;;;;;;5075312;28;20217;-81
2022/09/12 04:11:22;;;;;;;1.92;1.83;;;;;;;;;;5075604;28;20256;-81
2022/09/12 04:13:49;;;;;;;1.92;1.83;;;;;;;;;;5075466;28;20207;-81
2022/09/12 04:16:17;;;;;;;2.92;2.38;;;;;;;;;;5075225;28;20223;-81
2022/09/12 04:18:45;;;;;;;1.80;1.70;;;;;;;;;;5074907;28;20232;-81
2022/09/12 04:21:15;;;;;;;2.03;1.92;;;;;;;;;;5075227;28;20207;-81
2022/09/12 04:23:43;;;;;;;2.22;2.10;;;;;;;;;;5075462;28;20201;-81
2022/09/12 04:26:13;;;;;;;1.52;1.42;;;;;;;;;;5075279;28;20227;-81
2022/09/12 04:28:41;;;;;;;2.08;1.90;;;;;;;;;;5075112;28;20209;-81
2022/09/12 04:31:14;;;;;;;2.67;2.03;;;;;;;;;;5075216;28;20231;-81
2022/09/12 04:33:41;;;;;;;2.13;2.03;;;;;;;;;;5075130;28;20214;-81
2022/09/12 04:36:13;;;;;;;2.05;1.95;;;;;;;;;;5074595;28;20689;-81
2022/09/12 04:38:40;;;;;;;1.60;1.50;;;;;;;;;;5074819;28;20263;-81
2022/09/12 04:41:13;;;;;;;1.90;1.80;;;;;;;;;;5074170;28;20284;-81
2022/09/12 04:43:42;;;;;;;1.80;1.70;;;;;;;;;;5074943;28;20204;-81
2022/09/12 04:46:11;;;;;;;1.60;1.50;;;;;;;;;;5074584;28;20201;-81
2022/09/12 04:48:39;;;;;;;1.50;1.40;;;;;;;;;;5078339;28;20201;-81
2022/09/12 04:51:12;;;;;;;1.80;1.70;;;;;;;;;;5074483;28;20227;-81
2022/09/12 04:53:40;;;;;;;1.70;1.60;;;;;;;;;;5074346;28;20299;-81
2022/09/12 04:56:10;;;;;;;2.10;2.00;;;;;;;;;;5074179;28;20718;-82
2022/09/12 04:58:39;;;;;;;2.10;2.00;;;;;;;;;;5073914;28;20227;-82
2022/09/12 05:01:08;;;;;;;1.73;1.63;;;;;;;;;;5074025;28;20193;-81
2022/09/12 05:03:37;;;;;;;1.20;1.20;;;;;;;;;;5074147;28;20564;-81
2022/09/12 05:06:07;;;;;;;1.35;1.35;;;;;;;;;;5074047;28;20201;-81
2022/09/12 05:08:35;;;;;;;1.42;1.33;;;;;;;;;;5073395;28;20205;-80
2022/09/12 05:11:03;;;;;;;1.20;1.20;;;;;;;;;;5073685;28;20228;-81
2022/09/12 05:13:32;;;;;;;1.50;1.40;;;;;;;;;;5073659;28;20197;-81
2022/09/12 05:16:03;;;;;;;1.30;1.25;;;;;;;;;;5073885;28;20197;-79
2022/09/12 05:18:33;;;;;;;1.00;1.00;;;;;;;;;;5073368;28;20205;-77
2022/09/12 05:21:01;;;;;;;1.40;1.30;;;;;;;;;;5073772;28;20200;-77
2022/09/12 05:23:29;;;;;;;1.45;1.35;;;;;;;;;;5073574;28;20284;-79
2022/09/12 05:25:58;;;;;;;1.20;1.20;;;;;;;;;;5050578;28;20268;-80
2022/09/12 05:28:29;;;;;;;1.20;1.20;;;;;;;;;;5054179;28;20280;-78
2022/09/12 05:31:07;;;;;;;1.40;1.30;;;;;;;;;;5054166;28;20599;-79
2022/09/12 05:33:38;;;;;;;1.50;1.40;;;;;;;;;;5054659;28;20197;-77
2022/09/12 05:36:10;;;;;;;1.30;1.20;;;;;;;;;;5053885;28;20221;-78
2022/09/12 05:38:38;;;;;;;1.60;1.50;;;;;;;;;;5054164;28;20634;-77
2022/09/12 05:41:06;;;;;;;1.00;1.00;;;;;;;;;;5051976;28;20280;-77
2022/09/12 05:43:34;;;;;;;1.45;1.40;;;;;;;;;;5054038;28;20201;-78
2022/09/12 05:46:06;;;;;;;1.55;1.45;;;;;;;;;;5054293;28;20198;-77
2022/09/12 05:48:34;;;;;;;1.20;1.20;;;;;;;;;;5053767;28;20205;-77
2022/09/12 05:51:04;;;;;;;1.10;1.10;;;;;;;;;;5053303;28;20603;-77
2022/09/12 05:53:32;;;;;;;1.40;1.30;;;;;;;;;;5054308;28;20228;-78
2022/09/12 05:56:05;;;;;;;1.42;1.42;;;;;;;;;;5063282;28;20201;-78
2022/09/12 05:58:33;;;;;;;0.93;0.93;;;;;;;;;;5073372;28;20207;-78
2022/09/12 06:01:07;;;;;;;1.20;1.20;;;;;;;;;;5073434;28;20199;-78
2022/09/12 06:03:36;;;;;;;1.10;1.10;;;;;;;;;;5073186;28;20588;-77
2022/09/12 06:06:05;;;;;;;1.20;1.20;;;;;;;;;;5073474;28;20701;-78
2022/09/12 06:08:33;;;;;;;1.10;1.10;;;;;;;;;;5073300;28;20288;-77
2022/09/12 06:11:03;;;;;;;0.90;0.90;;;;;;;;;;5073309;28;20221;-78
2022/09/12 06:13:33;;;;;;;1.08;1.08;;;;;;;;;;5073710;28;20578;-78
2022/09/12 06:16:07;;;;;;;1.17;1.17;;;;;;;;;;5066881;28;20197;-78
2022/09/12 06:18:35;;;;;;;0.98;0.98;;;;;;;;;;5052970;28;20286;-78
2022/09/12 06:21:07;;;;;;;1.50;1.40;;;;;;;;;;5052811;28;20205;-79
2022/09/12 06:23:34;;;;;;;1.20;1.20;;;;;;;;;;5053012;28;20225;-78
2022/09/12 06:26:03;;;;;;;1.25;1.25;;;;;;;;;;5063048;28;20207;-79
2022/09/12 06:28:31;;;;;;;1.88;1.55;;;;;;;;;;5072253;28;20205;-79
2022/09/12 06:31:04;;;;;;;1.50;1.40;;;;;;;;;;5072995;28;20680;-79
2022/09/12 06:33:35;;;;;;;1.50;1.45;;;;;;;;;;5073250;28;20197;-78
2022/09/12 06:36:06;;;;;;;1.70;1.60;;;;;;;;;;5072898;28;20687;-79
2022/09/12 06:38:34;;;;;;;1.35;1.33;;;;;;;;;;5072207;28;20207;-78
2022/09/12 06:41:05;;;;;;;1.88;1.77;;;;;;;;;;5072319;28;20205;-78
2022/09/12 06:43:33;;;;;;;1.65;1.60;;;;;;;;;;5072892;28;20325;-79
2022/09/12 06:46:00;;;;;;;2.00;1.90;;;;;;;;;;5062195;28;20204;-78
2022/09/12 06:48:28;;;;;;;1.60;1.50;;;;;;;;;;5052555;28;20197;-78
2022/09/12 06:50:58;;;;;;;1.40;1.40;;;;;;;;;;5052026;28;20204;-79
2022/09/12 06:53:27;;;;;;;1.50;1.40;;;;;;;;;;5051731;28;20566;-79
2022/09/12 06:55:59;;;;;;;1.50;1.40;;;;;;;;;;5061589;28;20201;-79
2022/09/12 06:58:27;;;;;;;1.70;1.60;;;;;;;;;;5071693;28;20287;-79
2022/09/12 07:01:03;;;;;;;1.25;1.20;;;;;;;;;;5072006;28;20193;-78
2022/09/12 07:03:31;;;;;;;1.65;1.55;;;;;;;;;;5070923;28;20315;-78
2022/09/12 07:06:05;;;;;;;1.63;1.52;;;;;;;;;;5071428;28;20208;-78
2022/09/12 07:08:33;;;;;;;1.52;1.50;;;;;;;;;;5071315;28;20621;-77
2022/09/12 07:11:08;;;;;;;1.83;1.73;;;;;;;;;;5071961;28;20250;-78
2022/09/12 07:13:35;;;;;;;2.25;2.15;;;;;;;;;;5071809;28;20197;-77
2022/09/12 07:16:03;;;;;;;2.20;2.10;;;;;;;;;;5071863;28;20287;-79
2022/09/12 07:18:31;;;;;;;2.97;2.72;;;;;;;;;;5075212;28;20197;-80
2022/09/12 07:21:02;;;;;;;2.45;2.25;;;;;;;;;;5056047;28;20304;-80
2022/09/12 07:23:29;;;;;;;2.00;1.90;;;;;;;;;;5056839;28;20662;-81
2022/09/12 07:25:59;;;;;;;2.47;2.28;;;;;;;;;;5065743;28;20741;-80
2022/09/12 07:28:29;;;;;;;2.35;2.15;;;;;;;;;;5074409;28;20201;-80
2022/09/12 07:30:56;;;;;;;2.72;2.53;;;;;;;;;;5074592;28;20208;-80
2022/09/12 07:33:26;;;;;;;2.55;2.35;;;;;;;;;;5072992;28;20211;-79
2022/09/12 07:35:54;;;;;;;2.28;2.17;;;;;;;;;;5073348;28;20215;-80
2022/09/12 07:38:23;;;;;;;2.22;2.13;;;;;;;;;;5073263;28;20201;-79
2022/09/12 07:40:50;;;;;;;1.90;1.80;;;;;;;;;;5073273;28;20307;-79
2022/09/12 07:43:17;;;;;;;2.75;2.60;;;;;;;;;;5073034;28;20311;-79
2022/09/12 07:45:45;;;;;;;3.78;3.47;;;;;;;;;;5071941;28;20288;-82
2022/09/12 07:48:12;;;;;;;2.30;2.20;;;;;;;;;;5065462;28;20662;-79
2022/09/12 07:50:40;;;;;;;2.90;2.70;;;;;;;;;;5052137;28;20679;-79
2022/09/12 07:53:08;;;;;;;3.13;2.92;;;;;;;;;;5051499;28;20284;-84
2022/09/12 07:55:37;;;;;;;3.50;3.20;;;;;;;;;;5058527;28;20208;-80
2022/09/12 07:58:04;;;;;;;4.07;3.40;;;;;;;;;;5072066;28;20227;-80
2022/09/12 08:00:35;;;;;;;3.63;3.33;;;;;;;;;;5071409;28;20312;-79
2022/09/12 08:03:03;;;;;;;4.20;3.80;;;;;;;;;;5072202;28;20274;-79
2022/09/12 08:05:30;;;;;;;4.40;4.03;;;;;;;;;;5071593;28;20669;-80
2022/09/12 08:07:58;;;;;;;3.03;2.83;;;;;;;;;;5071499;28;20301;-79
2022/09/12 08:10:25;;;;;;;4.57;3.50;;;;;;;;;;5062805;28;20644;-81
2022/09/12 08:12:54;;;;;;;5.00;4.50;;;;;;;;;;5050995;28;20231;-80
2022/09/12 08:15:22;;;;;;;5.68;5.15;;;;;;;;;;5054155;28;20293;-80
2022/09/12 08:17:49;;;;;;;3.10;2.88;;;;;;;;;;5053890;28;20697;-80
2022/09/12 08:20:17;;;;;;;4.90;4.40;;;;;;;;;;5054399;28;20221;-79
2022/09/12 08:22:45;;;;;;;4.85;4.45;;;;;;;;;;5054425;28;20229;-79
2022/09/12 08:25:12;;;;;;;5.60;4.95;;;;;;;;;;5057608;28;20207;-80
2022/09/12 08:27:40;;;;;;;5.20;4.78;;;;;;;;;;5073741;28;20317;-81
2022/09/12 08:30:10;;;;;;;5.40;4.50;;;;;;;;;;5073822;28;20225;-81
2022/09/12 08:32:38;;;;;;;6.35;5.25;;;;;;;;;;5074130;28;20201;-80
2022/09/12 08:35:06;;;;;;;7.18;6.47;;;;;;;;;;5073880;28;20695;-80
2022/09/12 08:37:34;;;;;;;6.80;6.20;;;;;;;;;;5073894;28;20201;-79
2022/09/12 08:40:05;;;;;;;6.03;5.53;;;;;;;;;;5073752;28;20235;-80
2022/09/12 08:42:46;;;;;;;4.38;3.97;;;;;;;;;;5074301;28;20256;-81
2022/09/12 08:45:19;;;;;;;4.35;3.95;;;;;;;;;;5054241;28;20211;-80
2022/09/12 08:47:47;;;;;;;4.93;4.50;;;;;;;;;;5053779;28;20209;-80
2022/09/12 08:50:19;;;;;;;6.57;5.93;;;;;;;;;;5053896;28;20598;-80
2022/09/12 08:52:54;;;;;;;6.20;5.60;;;;;;;;;;5054067;28;20208;-79
2022/09/12 08:55:32;;;;;;;6.18;5.60;;;;;;;;;;5058785;28;20200;-80
2022/09/12 08:58:00;;;;;;;5.57;5.07;;;;;;;;;;5073801;28;20201;-80
2022/09/12 09:00:39;;;;;;;5.78;5.18;;;;;;;;;;5073870;28;20227;-79
2022/09/12 09:03:26;;;;;;;5.57;5.07;;;;;;;;;;5073807;28;20220;-81
2022/09/12 09:06:03;;;;;;;4.85;4.45;;;;;;;;;;5073669;28;20207;-80
2022/09/12 09:08:40;;;;;;;6.18;5.53;;;;;;;;;;5073643;28;20201;-80
2022/09/12 09:11:24;;;;;;;5.05;4.55;;;;;;;;;;5073736;28;20672;-81
2022/09/12 09:16:51;;;;;;;5.30;4.80;;;;;;;;;;5073438;28;20670;-81
2022/09/12 09:19:23;;;;;;;5.40;4.65;;;;;;;;;;5059456;28;20228;-82
2022/09/12 09:21:53;;;;;;;6.07;5.40;;;;;;;;;;5053421;28;20687;-81
2022/09/12 09:24:26;;;;;;;4.38;3.97;;;;;;;;;;5053179;28;20793;-80
2022/09/12 09:26:58;;;;;;;4.00;3.65;;;;;;;;;;5070018;28;20209;-81
2022/09/12 09:29:29;;;;;;;5.13;4.63;;;;;;;;;;5073284;28;20307;-82
2022/09/12 09:32:01;;;;;;;4.80;4.40;;;;;;;;;;5073451;28;20699;-81
2022/09/12 09:34:31;;;;;;;4.22;3.92;;;;;;;;;;5073675;28;20197;-81
2022/09/12 09:37:05;;;;;;;4.18;3.78;;;;;;;;;;5072607;28;20209;-81
2022/09/12 09:39:46;;;;;;;4.78;4.35;;;;;;;;;;5073220;28;20217;-81
2022/09/12 09:42:27;;;;;;;4.95;3.97;;;;;;;;;;5073288;28;20208;-81
2022/09/12 09:44:57;;;;;;;4.28;3.90;;;;;;;;;;5073123;28;20229;-81
2022/09/12 09:47:28;;;;;;;4.55;4.15;;;;;;;;;;5072797;28;20250;-80
2022/09/12 09:49:55;;;;;;;3.83;3.42;;;;;;;;;;5054084;28;20680;-80
2022/09/12 09:52:28;;;;;;;3.55;3.25;;;;;;;;;;5051729;28;20201;-80
2022/09/12 09:54:59;;;;;;;5.38;4.82;;;;;;;;;;5053941;28;20204;-80
2022/09/12 09:57:41;;;;;;;3.63;3.17;;;;;;;;;;5045013;28;20284;-83
2022/09/12 10:00:30;;;;;;;3.58;3.28;;;;;;;;;;5053000;28;20253;-81
2022/09/12 10:03:26;;;;;;;5.95;4.60;;;;;;;;;;5052704;28;20202;-84
2022/09/12 10:05:55;;;;;;;4.15;3.70;;;;;;;;;;5052593;28;20205;-82
2022/09/12 10:08:26;;;;;;;3.65;3.35;;;;;;;;;;5052576;28;20640;-81
2022/09/12 10:10:56;;;;;;;4.63;3.75;;;;;;;;;;5052631;28;20208;-81
2022/09/12 10:13:31;;;;;;;4.70;3.20;;;;;;;;;;5052723;28;20265;-81
2022/09/12 10:16:02;;;;;;;3.22;2.90;;;;;;;;;;5052468;28;20207;-81
2022/09/12 10:18:42;;;;;;;5.05;3.38;;;;;;;;;;5052435;28;20205;-82
2022/09/12 10:21:30;;;;;;;2.97;2.78;;;;;;;;;;5052801;28;20588;-81
2022/09/12 10:24:13;;;;;;;2.60;2.40;;;;;;;;;;5052447;28;20308;-80
2022/09/12 10:26:41;;;;;;;3.00;2.80;;;;;;;;;;5067695;28;20211;-80
2022/09/12 10:29:16;;;;;;;3.20;2.90;;;;;;;;;;5072284;28;20312;-80
2022/09/12 10:31:50;;;;;;;3.83;3.50;;;;;;;;;;5072173;28;20682;-81
2022/09/12 10:34:26;;;;;;;3.80;2.70;;;;;;;;;;5072366;28;20197;-81
2022/09/12 10:37:00;;;;;;;3.10;2.90;;;;;;;;;;5054393;28;20292;-81
2022/09/12 10:39:27;;;;;;;2.03;1.90;;;;;;;;;;5051954;28;20229;-81
2022/09/12 10:41:55;;;;;;;2.08;1.98;;;;;;;;;;5052397;28;20308;-80
2022/09/12 10:44:27;;;;;;;2.80;2.38;;;;;;;;;;5052018;28;20229;-81
2022/09/12 10:46:54;;;;;;;2.80;2.60;;;;;;;;;;5051936;28;20288;-80
2022/09/12 10:49:30;;;;;;;3.42;3.08;;;;;;;;;;5051675;28;20709;-82
2022/09/12 10:52:15;;;;;;;2.47;2.28;;;;;;;;;;5052304;28;20223;-80
2022/09/12 10:54:42;;;;;;;2.72;2.53;;;;;;;;;;5052082;28;20205;-80
2022/09/12 10:57:28;;;;;;;2.72;2.53;;;;;;;;;;5071144;28;20661;-80
2022/09/12 11:00:13;;;;;;;4.05;3.05;;;;;;;;;;5071635;28;20216;-80
2022/09/12 11:02:57;;;;;;;3.20;3.00;;;;;;;;;;5071945;28;20219;-80
2022/09/12 11:05:58;;;;;;;3.65;3.22;;;;;;;;;;5071734;28;20220;-80
2022/09/12 11:08:55;;;;;;;3.42;3.08;;;;;;;;;;5071921;28;20265;-79
2022/09/12 11:11:46;;;;;;;4.10;3.70;;;;;;;;;;5071897;28;20201;-80
2022/09/12 11:14:37;;;;;;;3.88;3.53;;;;;;;;;;5071777;28;20197;-81
2022/09/12 11:17:20;;;;;;;4.43;4.03;;;;;;;;;;5069869;28;20571;-80
2022/09/12 11:20:17;;;;;;;3.65;3.35;;;;;;;;;;5053919;28;20304;-79
2022/09/12 11:23:23;;;;;;;5.32;3.95;;;;;;;;;;5051596;28;20208;-81
2022/09/12 11:25:59;;;;;;;5.53;4.03;;;;;;;;;;5060263;28;20242;-80
2022/09/12 11:28:35;;;;;;;3.25;3.05;;;;;;;;;;5071718;28;20204;-80
2022/09/12 11:31:26;;;;;;;4.22;3.35;;;;;;;;;;5071509;28;20664;-80
2022/09/12 11:33:54;;;;;;;3.00;2.80;;;;;;;;;;5071940;28;20197;-82
2022/09/12 11:36:31;;;;;;;4.22;3.88;;;;;;;;;;5072337;28;20231;-80
2022/09/12 11:39:14;;;;;;;4.38;4.05;;;;;;;;;;5072107;28;20223;-79
2022/09/12 11:41:43;;;;;;;2.90;2.70;;;;;;;;;;5072304;28;20200;-80
2022/09/12 11:44:17;;;;;;;2.58;2.38;;;;;;;;;;5071945;28;20227;-81
2022/09/12 11:46:45;;;;;;;3.90;2.83;;;;;;;;;;5071602;28;20673;-79
2022/09/12 11:49:21;;;;;;;3.13;2.85;;;;;;;;;;5059628;28;20229;-81
2022/09/12 11:51:53;;;;;;;2.65;2.42;;;;;;;;;;5055229;28;20201;-81
2022/09/12 11:54:28;;;;;;;2.22;2.03;;;;;;;;;;5055471;28;20208;-81
2022/09/12 11:57:03;;;;;;;2.45;2.20;;;;;;;;;;5072770;28;20232;-81
2022/09/12 11:59:37;;;;;;;3.33;3.03;;;;;;;;;;5075225;28;20229;-81
2022/09/12 12:02:05;;;;;;;3.72;3.35;;;;;;;;;;5075135;28;20219;-79
2022/09/12 12:04:41;;;;;;;3.50;3.20;;;;;;;;;;5074766;28;20224;-80
2022/09/12 12:07:11;;;;;;;3.88;3.58;;;;;;;;;;5074627;28;20206;-80
2022/09/12 12:09:49;;;;;;;3.13;2.83;;;;;;;;;;5074970;28;20700;-80
2022/09/12 12:12:19;;;;;;;3.55;3.28;;;;;;;;;;5074752;28;20664;-79
2022/09/12 12:14:49;;;;;;;3.88;3.50;;;;;;;;;;5074675;28;20289;-79
2022/09/12 12:17:19;;;;;;;4.20;3.80;;;;;;;;;;5074956;28;20283;-80
2022/09/12 12:19:49;;;;;;;5.00;4.38;;;;;;;;;;5056999;28;20308;-80
2022/09/12 12:22:20;;;;;;;4.93;4.53;;;;;;;;;;5054908;28;20205;-80
2022/09/12 12:25:38;;;;;;;3.83;3.45;;;;;;;;;;5054782;28;20227;-81
2022/09/12 12:28:06;;;;;;;4.18;3.30;;;;;;;;;;5043621;28;20208;-80
2022/09/12 12:31:01;;;;;;;5.47;4.95;;;;;;;;;;5075153;28;20220;-80
2022/09/12 12:34:01;;;;;;;3.70;3.38;;;;;;;;;;5074628;28;20201;-80
2022/09/12 12:36:39;;;;;;;3.53;3.22;;;;;;;;;;5074553;28;20205;-81
2022/09/12 12:39:59;;;;;;;3.53;3.22;;;;;;;;;;5074829;28;20227;-79
2022/09/12 12:43:06;;;;;;;4.43;4.03;;;;;;;;;;5074334;28;20212;-80
2022/09/12 12:46:01;;;;;;;4.38;3.97;;;;;;;;;;5049505;28;20217;-80
2022/09/12 12:48:33;;;;;;;2.88;2.50;;;;;;;;;;5067363;28;20208;-81
2022/09/12 12:51:46;;;;;;;3.42;3.15;;;;;;;;;;5054544;28;20202;-81
2022/09/12 12:54:56;;;;;;;3.03;2.83;;;;;;;;;;5050286;28;20216;-80
2022/09/12 12:57:48;;;;;;;3.70;3.40;;;;;;;;;;5034191;28;20213;-81
2022/09/12 13:00:33;;;;;;;3.10;2.80;;;;;;;;;;5024654;28;20226;-79
2022/09/12 13:03:09;;;;;;;3.70;3.30;;;;;;;;;;5034087;28;20566;-80
2022/09/12 13:05:41;;;;;;;4.07;3.55;;;;;;;;;;5034039;28;20225;-80
2022/09/12 13:08:11;;;;;;;3.80;3.50;;;;;;;;;;5033597;28;20658;-80
2022/09/12 13:10:39;;;;;;;2.88;2.67;;;;;;;;;;5033793;28;20233;-80
2022/09/12 13:13:08;;;;;;;3.47;3.17;;;;;;;;;;5033501;28;20297;-81
2022/09/12 13:15:53;;;;;;;3.85;3.50;;;;;;;;;;5033942;28;20198;-80
2022/09/12 13:18:26;;;;;;;3.00;2.80;;;;;;;;;;5034005;28;20202;-81
2022/09/12 13:21:08;;;;;;;3.05;2.78;;;;;;;;;;5033790;28;20629;-80
2022/09/12 13:23:35;;;;;;;4.05;3.60;;;;;;;;;;5034220;28;20202;-81
2022/09/12 13:26:04;;;;;;;4.53;3.22;;;;;;;;;;5054691;28;20251;-81
2022/09/12 13:28:32;;;;;;;2.72;2.53;;;;;;;;;;5073219;28;20197;-79
2022/09/12 13:31:03;;;;;;;3.05;2.85;;;;;;;;;;5073748;28;20209;-81
2022/09/12 13:33:36;;;;;;;4.05;3.72;;;;;;;;;;5073426;28;20675;-81
2022/09/12 13:36:56;;;;;;;4.30;3.50;;;;;;;;;;5074034;28;20209;-82
2022/09/12 13:39:28;;;;;;;4.15;2.88;;;;;;;;;;5073351;28;20247;-82
2022/09/12 13:42:23;;;;;;;2.70;2.50;;;;;;;;;;5073698;28;20587;-82
2022/09/12 13:44:54;;;;;;;3.65;2.75;;;;;;;;;;5073626;28;20582;-81
2022/09/12 13:47:26;;;;;;;2.72;2.53;;;;;;;;;;5073446;28;20247;-82
2022/09/12 13:49:55;;;;;;;3.60;3.30;;;;;;;;;;5055146;28;20283;-81
2022/09/12 13:52:24;;;;;;;3.65;3.35;;;;;;;;;;5053960;28;20308;-82
2022/09/12 13:54:55;;;;;;;3.90;3.60;;;;;;;;;;5054093;28;20292;-81
2022/09/12 13:57:36;;;;;;;3.10;2.90;;;;;;;;;;5073228;28;20214;-81
2022/09/12 14:00:09;;;;;;;3.60;3.30;;;;;;;;;;5073250;28;20227;-81
2022/09/12 14:02:40;;;;;;;2.95;2.75;;;;;;;;;;5073185;28;20201;-81
2022/09/12 14:05:20;;;;;;;2.95;2.67;;;;;;;;;;5073175;28;20201;-81
2022/09/12 14:07:54;;;;;;;3.90;3.50;;;;;;;;;;5073415;28;20697;-82
2022/09/12 14:10:29;;;;;;;3.22;2.92;;;;;;;;;;5072658;28;20229;-81
2022/09/12 14:12:57;;;;;;;3.60;3.00;;;;;;;;;;5073211;28;20210;-81
2022/09/12 14:15:27;;;;;;;2.30;2.10;;;;;;;;;;5072959;28;20679;-81
2022/09/12 14:17:58;;;;;;;3.40;3.10;;;;;;;;;;5070928;28;20193;-81
2022/09/12 14:20:26;;;;;;;3.10;2.90;;;;;;;;;;5052984;28;20642;-81
2022/09/12 14:22:53;;;;;;;3.90;3.55;;;;;;;;;;5053059;28;20209;-81
2022/09/12 14:25:23;;;;;;;3.95;2.85;;;;;;;;;;5056908;28;20230;-79
2022/09/12 14:27:53;;;;;;;2.80;2.60;;;;;;;;;;5072508;28;20205;-80
2022/09/12 14:30:26;;;;;;;2.72;2.42;;;;;;;;;;5072343;28;20220;-80
2022/09/12 14:33:16;;;;;;;2.80;2.60;;;;;;;;;;5072986;28;20687;-80
2022/09/12 14:35:45;;;;;;;3.50;3.13;;;;;;;;;;5072454;28;20205;-80
2022/09/12 14:38:24;;;;;;;2.75;2.55;;;;;;;;;;5072738;28;20557;-81
2022/09/12 14:40:59;;;;;;;3.00;2.70;;;;;;;;;;5072827;28;20221;-80
2022/09/12 14:43:30;;;;;;;2.30;2.17;;;;;;;;;;5072668;28;20219;-81
2022/09/12 14:46:00;;;;;;;3.55;2.63;;;;;;;;;;5072297;28;20227;-80
2022/09/12 14:48:31;;;;;;;2.60;2.40;;;;;;;;;;5065430;28;20292;-81
2022/09/12 14:51:00;;;;;;;3.22;2.95;;;;;;;;;;5052643;28;20202;-81
2022/09/12 14:53:33;;;;;;;2.70;2.50;;;;;;;;;;5052520;28;20198;-81
2022/09/12 14:56:09;;;;;;;2.60;2.40;;;;;;;;;;5062145;28;20207;-81
2022/09/12 14:58:37;;;;;;;2.38;2.17;;;;;;;;;;5071759;28;20200;-80
2022/09/12 15:01:25;;;;;;;2.45;2.25;;;;;;;;;;5071999;28;20197;-81
2022/09/12 15:03:55;;;;;;;3.25;2.95;;;;;;;;;;5072037;28;20196;-80
2022/09/12 15:06:28;;;;;;;2.22;2.05;;;;;;;;;;5071797;28;20328;-81
2022/09/12 15:08:57;;;;;;;2.63;2.08;;;;;;;;;;5072224;28;20221;-81
2022/09/12 15:11:25;;;;;;;2.15;1.98;;;;;;;;;;5071986;28;20287;-80
2022/09/12 15:13:53;;;;;;;2.60;2.40;;;;;;;;;;5072338;28;20291;-81
2022/09/12 15:16:20;;;;;;;3.30;2.55;;;;;;;;;;5072235;28;20250;-79
2022/09/12 15:18:48;;;;;;;2.78;2.58;;;;;;;;;;5062317;28;20229;-81
2022/09/12 15:21:20;;;;;;;2.47;2.28;;;;;;;;;;5051594;28;20197;-82
2022/09/12 15:23:49;;;;;;;2.40;2.20;;;;;;;;;;5052193;28;20285;-80
2022/09/12 15:26:19;;;;;;;2.47;2.28;;;;;;;;;;5067976;28;20757;-80